Time;durP1;ratioP1;P1;durP2;ratioP2;P2;SDS_P1;SDS_P2;PMS_P1;PMS_P2;Temp;Humidity;BMP_temperature;BMP_pressure;BME280_temperature;BME280_humidity;BME280_pressure;Samples;Min_cycle;Max_cycle;Signal;HPM_P1;HPM_P2
2021/08/28 00:05:17;;;;;;;12.40;4.20;;;;;;;;;;4342149;33;20160;-80
2021/08/28 00:08:46;;;;;;;12.95;4.15;;;;;;;;;;4345145;33;20212;-80
2021/08/28 00:12:01;;;;;;;14.05;4.55;;;;;;;;;;4346054;33;20472;-80
2021/08/28 00:14:38;;;;;;;14.35;3.60;;;;;;;;;;4339345;33;20159;-80
2021/08/28 00:17:03;;;;;;;16.23;4.55;;;;;;;;;;4343388;33;20611;-80
2021/08/28 00:19:46;;;;;;;;;;;;;;;;;;;;;
2021/08/28 00:22:21;;;;;;;11.80;4.35;;;;;;;;;;4317946;33;20197;-80
2021/08/28 00:25:14;;;;;;;13.85;4.70;;;;;;;;;;4345082;33;20155;-80
2021/08/28 00:27:59;;;;;;;13.25;4.40;;;;;;;;;;4345533;33;20243;-80
2021/08/28 00:37:03;;;;;;;20.45;5.07;;;;;;;;;;4285911;33;20177;-81
2021/08/28 00:39:57;;;;;;;12.88;4.32;;;;;;;;;;4285507;33;20662;-81
2021/08/28 00:43:14;;;;;;;12.48;4.35;;;;;;;;;;4326650;33;20639;-80
2021/08/28 00:46:08;;;;;;;16.17;4.72;;;;;;;;;;4343607;33;20246;-81
2021/08/28 00:49:45;;;;;;;;;;;;;;;;;;;;;
2021/08/28 00:54:59;;;;;;;;;;;;;;;;;;;;;
2021/08/28 00:57:31;;;;;;;12.35;4.40;;;;;;;;;;4300263;33;20136;-80
2021/08/28 01:03:42;;;;;;;12.85;4.28;;;;;;;;;;4271238;33;20247;-80
2021/08/28 01:06:01;;;;;;;13.77;4.30;;;;;;;;;;4272384;33;20289;-80
2021/08/28 01:12:14;;;;;;;10.70;4.03;;;;;;;;;;4322425;33;20182;-81
2021/08/28 01:14:54;;;;;;;13.80;3.87;;;;;;;;;;4345757;33;20135;-80
2021/08/28 01:18:03;;;;;;;11.40;4.37;;;;;;;;;;4345296;33;20169;-80
2021/08/28 01:20:40;;;;;;;14.43;4.20;;;;;;;;;;4344485;33;20201;-80
2021/08/28 01:23:06;;;;;;;12.05;4.40;;;;;;;;;;4345703;33;20155;-80
2021/08/28 01:25:47;;;;;;;14.73;4.12;;;;;;;;;;4332037;33;20167;-80
2021/08/28 01:28:40;;;;;;;20.08;4.45;;;;;;;;;;4344321;33;20178;-80
2021/08/28 01:31:47;;;;;;;12.93;4.60;;;;;;;;;;4343918;32;20163;-80
2021/08/28 01:34:35;;;;;;;17.15;6.10;;;;;;;;;;4344805;33;20246;-80
2021/08/28 01:40:15;;;;;;;16.83;5.00;;;;;;;;;;4299723;33;20610;-80
2021/08/28 01:43:06;;;;;;;15.63;4.60;;;;;;;;;;4299948;33;20149;-80
2021/08/28 02:14:44;;;;;;;14.00;5.07;;;;;;;;;;4216354;34;20571;-80
2021/08/28 02:20:26;;;;;;;12.98;4.87;;;;;;;;;;4228716;34;20192;-80
2021/08/28 02:23:12;;;;;;;12.65;4.78;;;;;;;;;;4231158;33;20218;-79
2021/08/28 02:28:59;;;;;;;17.48;5.10;;;;;;;;;;4206980;33;20185;-80
2021/08/28 02:31:45;;;;;;;;;;;;;;;;;;;;;
2021/08/28 02:34:32;;;;;;;16.62;4.78;;;;;;;;;;4348529;33;20442;-79
2021/08/28 02:37:00;;;;;;;13.18;4.80;;;;;;;;;;4347783;33;20613;-79
2021/08/28 02:39:27;;;;;;;15.80;4.50;;;;;;;;;;4346846;33;20171;-80
2021/08/28 02:41:55;;;;;;;11.63;4.75;;;;;;;;;;4334543;33;20187;-80
2021/08/28 02:44:36;;;;;;;14.87;5.03;;;;;;;;;;4334690;33;20155;-80
2021/08/28 02:56:06;;;;;;;14.23;4.50;;;;;;;;;;4362582;32;20178;-79
2021/08/28 03:02:13;;;;;;;13.88;4.78;;;;;;;;;;4287009;33;20243;-79
2021/08/28 03:13:52;;;;;;;13.35;4.40;;;;;;;;;;4301570;33;20136;-80
2021/08/28 03:16:44;;;;;;;10.50;4.32;;;;;;;;;;4310559;33;20198;-79
2021/08/28 03:22:43;;;;;;;13.40;4.35;;;;;;;;;;4301234;33;20164;-80
2021/08/28 03:28:15;;;;;;;13.75;4.45;;;;;;;;;;4315998;33;20596;-79
2021/08/28 03:36:36;;;;;;;18.87;5.12;;;;;;;;;;4301288;33;20187;-79
2021/08/28 03:39:26;;;;;;;10.52;4.53;;;;;;;;;;4301010;33;20227;-79
2021/08/28 03:42:05;;;;;;;9.55;4.07;;;;;;;;;;4293518;33;20239;-79
2021/08/28 03:44:44;;;;;;;11.40;4.20;;;;;;;;;;4289174;33;20194;-80
2021/08/28 03:47:48;;;;;;;;;;;;;;;;;;;;;
2021/08/28 03:50:55;;;;;;;;;;;;;;;;;;;;;
2021/08/28 03:57:22;;;;;;;;;;;;;;;;;;;;;
2021/08/28 04:00:04;;;;;;;10.07;4.53;;;;;;;;;;4298829;33;20172;-80
2021/08/28 04:05:58;;;;;;;9.93;4.15;;;;;;;;;;4315493;33;20170;-80
2021/08/28 04:08:47;;;;;;;11.90;4.50;;;;;;;;;;4336108;33;20230;-81
2021/08/28 04:11:13;;;;;;;12.65;3.92;;;;;;;;;;4345634;33;20181;-80
2021/08/28 04:16:44;;;;;;;9.98;4.20;;;;;;;;;;4257335;33;20631;-79
2021/08/28 04:19:47;;;;;;;;;;;;;;;;;;;;;
2021/08/28 04:22:28;;;;;;;6.87;3.58;;;;;;;;;;4356369;32;20163;-79
2021/08/28 04:25:25;;;;;;;;;;;;;;;;;;;;;
2021/08/28 04:28:20;;;;;;;10.20;4.18;;;;;;;;;;4361303;32;20151;-79
2021/08/28 04:30:49;;;;;;;12.80;4.12;;;;;;;;;;4361632;32;20201;-79
2021/08/28 04:40:01;;;;;;;12.45;4.32;;;;;;;;;;4255416;33;20236;-79
2021/08/28 04:42:57;;;;;;;;;;;;;;;;;;;;;
2021/08/28 04:51:25;;;;;;;12.80;4.37;;;;;;;;;;4257472;33;20161;-79
2021/08/28 04:57:03;;;;;;;12.02;4.85;;;;;;;;;;4251754;33;20248;-80
2021/08/28 05:00:03;;;;;;;;;;;;;;;;;;;;;
2021/08/28 05:02:34;;;;;;;11.70;5.03;;;;;;;;;;4257676;33;20220;-80
2021/08/28 05:05:30;;;;;;;;;;;;;;;;;;;;;
2021/08/28 05:08:11;;;;;;;14.73;4.90;;;;;;;;;;4347003;33;20155;-79
2021/08/28 05:11:13;;;;;;;10.13;4.32;;;;;;;;;;4345935;33;20162;-80
2021/08/28 05:22:36;;;;;;;11.55;4.90;;;;;;;;;;4228613;33;20524;-80
2021/08/28 05:25:10;;;;;;;11.75;4.80;;;;;;;;;;4228755;34;20159;-79
2021/08/28 05:27:54;;;;;;;10.52;5.28;;;;;;;;;;4228691;34;20201;-79
2021/08/28 05:30:29;;;;;;;12.00;4.53;;;;;;;;;;4228882;33;20185;-80
2021/08/28 05:33:16;;;;;;;12.05;4.45;;;;;;;;;;4239414;33;20173;-80
2021/08/28 05:36:06;;;;;;;12.45;4.68;;;;;;;;;;4344872;33;20213;-79
2021/08/28 05:38:56;;;;;;;11.43;4.35;;;;;;;;;;4305990;33;20179;-80
2021/08/28 05:41:27;;;;;;;9.52;4.47;;;;;;;;;;4327667;33;20486;-78
2021/08/28 05:50:25;;;;;;;10.38;4.45;;;;;;;;;;4328005;33;20201;-79
2021/08/28 05:52:53;;;;;;;12.25;4.80;;;;;;;;;;4320184;33;20480;-79
2021/08/28 05:58:42;;;;;;;12.18;4.90;;;;;;;;;;4314396;33;20231;-78
2021/08/28 06:04:36;;;;;;;13.93;4.97;;;;;;;;;;4360590;32;20222;-79
2021/08/28 06:10:02;;;;;;;;;;;;;;;;;;;;;
2021/08/28 06:12:42;;;;;;;11.05;4.68;;;;;;;;;;4325678;33;20201;-78
2021/08/28 06:15:26;;;;;;;12.43;4.60;;;;;;;;;;4332011;33;20279;-79
2021/08/28 06:17:52;;;;;;;9.80;4.12;;;;;;;;;;4344972;33;20569;-80
2021/08/28 06:20:17;;;;;;;8.77;4.75;;;;;;;;;;4343914;33;20156;-80
2021/08/28 06:22:42;;;;;;;10.52;4.47;;;;;;;;;;4344024;33;20666;-79
2021/08/28 06:25:08;;;;;;;7.55;4.10;;;;;;;;;;4344892;33;20177;-79
2021/08/28 06:27:49;;;;;;;11.50;4.22;;;;;;;;;;4331636;33;20155;-79
2021/08/28 06:30:14;;;;;;;10.70;4.43;;;;;;;;;;4331600;33;20524;-79
2021/08/28 06:35:28;;;;;;;13.77;4.85;;;;;;;;;;4339324;33;20190;-79
2021/08/28 06:38:02;;;;;;;10.63;4.25;;;;;;;;;;4331977;33;20159;-79
2021/08/28 06:40:51;;;;;;;10.88;4.37;;;;;;;;;;4331683;33;20471;-79
2021/08/28 06:43:16;;;;;;;12.05;4.32;;;;;;;;;;4331641;33;20187;-78
2021/08/28 06:46:02;;;;;;;9.98;4.62;;;;;;;;;;4333050;33;20155;-78
2021/08/28 06:48:27;;;;;;;12.90;4.55;;;;;;;;;;4342158;33;20155;-79
2021/08/28 06:50:58;;;;;;;11.35;4.47;;;;;;;;;;4334219;33;20154;-79
2021/08/28 06:53:23;;;;;;;14.13;4.45;;;;;;;;;;4346768;33;20246;-79
2021/08/28 06:55:50;;;;;;;13.43;4.30;;;;;;;;;;4333881;33;20151;-80
2021/08/28 06:58:21;;;;;;;11.15;4.75;;;;;;;;;;4348067;33;20124;-79
2021/08/28 07:00:55;;;;;;;12.27;4.47;;;;;;;;;;4334335;33;20505;-81
2021/08/28 07:03:41;;;;;;;13.27;4.47;;;;;;;;;;4347143;33;20159;-80
2021/08/28 07:06:07;;;;;;;11.45;4.32;;;;;;;;;;4330080;33;20510;-79
2021/08/28 07:08:35;;;;;;;10.52;4.40;;;;;;;;;;4333910;33;20152;-80
2021/08/28 07:11:11;;;;;;;10.10;4.22;;;;;;;;;;4334043;33;20217;-80
2021/08/28 07:13:50;;;;;;;;;;;;;;;;;;;;;
2021/08/28 07:16:25;;;;;;;10.98;4.12;;;;;;;;;;4347494;33;20147;-80
2021/08/28 07:18:53;;;;;;;11.32;4.00;;;;;;;;;;4348088;33;20127;-79
2021/08/28 07:21:37;;;;;;;10.30;4.30;;;;;;;;;;4333838;33;20194;-80
2021/08/28 07:24:04;;;;;;;15.43;5.05;;;;;;;;;;4345869;33;20193;-80
2021/08/28 07:26:49;;;;;;;10.30;3.78;;;;;;;;;;4347619;33;20514;-79
2021/08/28 07:29:14;;;;;;;9.20;3.50;;;;;;;;;;4333556;33;20152;-79
2021/08/28 07:31:59;;;;;;;10.07;3.50;;;;;;;;;;4333633;33;20155;-79
2021/08/28 07:38:49;;;;;;;;;;;;;;;;;;;;;
2021/08/28 07:40:48;;;;;;;7.87;3.62;;;;;;;;;;4275178;33;20576;-80
2021/08/28 07:46:06;;;;;;;8.45;3.60;;;;;;;;;;4348104;33;20595;-79
2021/08/28 07:48:50;;;;;;;5.32;3.10;;;;;;;;;;4347912;33;20170;-80
2021/08/28 07:51:34;;;;;;;;;;;;;;;;;;;;;
2021/08/28 07:54:21;;;;;;;;;;;;;;;;;;;;;
2021/08/28 07:57:06;;;;;;;;;;;;;;;;;;;;;
2021/08/28 07:59:40;;;;;;;11.35;3.15;;;;;;;;;;4361581;32;20151;-79
2021/08/28 08:02:09;;;;;;;7.95;3.28;;;;;;;;;;4360377;33;20167;-79
2021/08/28 08:04:45;;;;;;;6.37;2.92;;;;;;;;;;4362166;32;20170;-79
2021/08/28 08:07:20;;;;;;;7.95;3.33;;;;;;;;;;4360299;32;20615;-80
2021/08/28 08:10:04;;;;;;;9.77;3.80;;;;;;;;;;4360015;32;20236;-80
2021/08/28 08:12:51;;;;;;;8.18;4.20;;;;;;;;;;4361938;32;20127;-80
2021/08/28 08:15:21;;;;;;;8.73;4.45;;;;;;;;;;4360965;33;20155;-80
2021/08/28 08:18:27;;;;;;;8.70;4.00;;;;;;;;;;4360093;32;20458;-79
2021/08/28 08:27:02;;;;;;;;;;;;;;;;;;;;;
2021/08/28 08:29:28;;;;;;;9.00;3.80;;;;;;;;;;4329941;33;20167;-80
2021/08/28 08:31:59;;;;;;;9.52;3.80;;;;;;;;;;4317391;33;20163;-79
2021/08/28 08:34:25;;;;;;;7.00;3.50;;;;;;;;;;4330441;33;20132;-79
2021/08/28 08:36:54;;;;;;;8.55;3.80;;;;;;;;;;4317502;33;20202;-79
2021/08/28 08:39:37;;;;;;;12.45;4.10;;;;;;;;;;4346177;33;20199;-79
2021/08/28 08:42:02;;;;;;;7.25;3.10;;;;;;;;;;4352961;32;20192;-80
2021/08/28 08:44:28;;;;;;;7.60;3.47;;;;;;;;;;4359440;32;20171;-80
2021/08/28 08:47:03;;;;;;;10.10;3.42;;;;;;;;;;4359969;32;20175;-81
2021/08/28 08:50:01;;;;;;;8.63;3.22;;;;;;;;;;4361275;33;20123;-80
2021/08/28 08:55:28;;;;;;;6.62;3.00;;;;;;;;;;4314573;33;20194;-80
2021/08/28 08:58:02;;;;;;;5.60;3.30;;;;;;;;;;4343413;33;20568;-80
2021/08/28 09:01:11;;;;;;;7.10;3.28;;;;;;;;;;4362160;32;20155;-80
2021/08/28 09:03:32;;;;;;;8.95;3.37;;;;;;;;;;4357875;33;20221;-80
2021/08/28 09:05:57;;;;;;;7.30;3.42;;;;;;;;;;4347695;33;20217;-80
2021/08/28 09:08:31;;;;;;;9.40;4.15;;;;;;;;;;4359004;32;20171;-80
2021/08/28 09:13:52;;;;;;;11.23;4.05;;;;;;;;;;4358898;33;20472;-80
2021/08/28 09:16:40;;;;;;;7.53;4.12;;;;;;;;;;4358896;32;20675;-80
2021/08/28 09:19:08;;;;;;;8.90;3.78;;;;;;;;;;4359415;33;20565;-81
2021/08/28 09:21:34;;;;;;;9.50;3.95;;;;;;;;;;4344197;32;20585;-80
2021/08/28 09:24:13;;;;;;;8.38;4.12;;;;;;;;;;4331923;33;20526;-80
2021/08/28 09:26:39;;;;;;;9.82;4.07;;;;;;;;;;4332155;33;20534;-79
2021/08/28 09:29:16;;;;;;;7.28;3.83;;;;;;;;;;4332454;33;20151;-80
2021/08/28 09:31:43;;;;;;;9.25;4.15;;;;;;;;;;4331956;33;20189;-80
2021/08/28 09:34:22;;;;;;;7.75;3.80;;;;;;;;;;4332131;33;20297;-80
2021/08/28 09:37:07;;;;;;;8.63;3.90;;;;;;;;;;4358731;32;20155;-80
2021/08/28 09:39:47;;;;;;;5.75;3.83;;;;;;;;;;4358784;32;20155;-79
2021/08/28 09:42:20;;;;;;;7.10;3.33;;;;;;;;;;4346342;33;20155;-80
2021/08/28 09:45:20;;;;;;;9.95;4.10;;;;;;;;;;4358985;33;20259;-81
2021/08/28 09:47:43;;;;;;;11.88;4.53;;;;;;;;;;4357374;33;20209;-80
2021/08/28 09:50:09;;;;;;;9.05;4.20;;;;;;;;;;4346488;33;20530;-81
2021/08/28 09:52:34;;;;;;;7.72;3.92;;;;;;;;;;4345671;33;20190;-80
2021/08/28 09:55:16;;;;;;;7.75;3.90;;;;;;;;;;4358298;33;20577;-80
2021/08/28 09:57:51;;;;;;;9.60;4.45;;;;;;;;;;4363975;32;20278;-80
2021/08/28 10:00:21;;;;;;;8.00;3.95;;;;;;;;;;4359277;33;20155;-80
2021/08/28 10:06:49;;;;;;;7.30;3.28;;;;;;;;;;4357626;32;20174;-79
2021/08/28 10:09:23;;;;;;;7.12;3.45;;;;;;;;;;4359040;33;20251;-81
2021/08/28 10:11:52;;;;;;;7.85;3.83;;;;;;;;;;4346163;33;20151;-80
2021/08/28 10:14:23;;;;;;;11.23;4.60;;;;;;;;;;4353347;33;20159;-79
2021/08/28 10:16:49;;;;;;;12.35;4.25;;;;;;;;;;4370904;32;20551;-80
2021/08/28 10:19:16;;;;;;;11.05;4.30;;;;;;;;;;4354491;33;20232;-80
2021/08/28 10:21:54;;;;;;;;;;;;;;;;;;;;;
2021/08/28 10:24:24;;;;;;;8.18;3.75;;;;;;;;;;4360312;32;20182;-80
2021/08/28 10:26:50;;;;;;;12.05;4.40;;;;;;;;;;4358842;32;20210;-78
2021/08/28 10:29:18;;;;;;;8.35;4.30;;;;;;;;;;4361366;32;20163;-79
2021/08/28 10:32:31;;;;;;;7.20;3.78;;;;;;;;;;4356673;32;20225;-79
2021/08/28 10:34:39;;;;;;;7.68;3.75;;;;;;;;;;4353870;32;20232;-80
2021/08/28 10:37:27;;;;;;;8.07;3.03;;;;;;;;;;4352101;33;20181;-79
2021/08/28 10:39:55;;;;;;;7.25;3.30;;;;;;;;;;4347795;33;20163;-79
2021/08/28 10:42:36;;;;;;;8.45;3.75;;;;;;;;;;4348585;33;20159;-79
2021/08/28 10:45:04;;;;;;;9.10;3.92;;;;;;;;;;4337369;33;20155;-79
2021/08/28 10:48:05;;;;;;;6.62;3.92;;;;;;;;;;4361162;33;20186;-80
2021/08/28 10:51:05;;;;;;;;;;;;;;;;;;;;;
2021/08/28 10:53:35;;;;;;;10.65;3.47;;;;;;;;;;4318945;33;20605;-79
2021/08/28 10:56:19;;;;;;;;;;;;;;;;;;;;;
2021/08/28 10:58:47;;;;;;;8.23;3.67;;;;;;;;;;4362643;32;20139;-79
2021/08/28 11:01:17;;;;;;;7.80;2.95;;;;;;;;;;4347200;33;20147;-79
2021/08/28 11:03:42;;;;;;;6.18;3.00;;;;;;;;;;4361953;32;20167;-78
2021/08/28 11:06:30;;;;;;;7.90;3.03;;;;;;;;;;4348192;32;20174;-79
2021/08/28 11:09:04;;;;;;;4.75;3.10;;;;;;;;;;4360631;32;20200;-80
2021/08/28 11:11:40;;;;;;;4.50;2.72;;;;;;;;;;4360778;33;20636;-78
2021/08/28 11:14:06;;;;;;;5.40;2.60;;;;;;;;;;4349380;33;20147;-80
2021/08/28 11:17:07;;;;;;;4.45;2.30;;;;;;;;;;4360761;32;20185;-78
2021/08/28 11:19:37;;;;;;;5.72;2.87;;;;;;;;;;4362395;32;20463;-77
2021/08/28 11:22:25;;;;;;;7.43;3.00;;;;;;;;;;4360490;33;20193;-78
2021/08/28 11:24:54;;;;;;;6.43;2.72;;;;;;;;;;4360680;32;20155;-80
2021/08/28 11:27:35;;;;;;;7.85;2.85;;;;;;;;;;4360187;33;20195;-79
2021/08/28 11:30:03;;;;;;;7.60;2.90;;;;;;;;;;4357597;32;20221;-79
2021/08/28 11:32:36;;;;;;;6.82;2.70;;;;;;;;;;4360655;32;20179;-79
2021/08/28 11:35:31;;;;;;;6.62;2.78;;;;;;;;;;4360603;32;20504;-78
2021/08/28 11:38:06;;;;;;;6.78;3.15;;;;;;;;;;4373612;32;20155;-79
2021/08/28 11:40:33;;;;;;;6.30;3.05;;;;;;;;;;4362008;32;20228;-80
2021/08/28 11:43:06;;;;;;;7.18;2.70;;;;;;;;;;4347425;33;20623;-79
2021/08/28 11:45:33;;;;;;;5.45;2.65;;;;;;;;;;4360300;32;20189;-79
2021/08/28 11:47:59;;;;;;;5.18;2.28;;;;;;;;;;4360261;32;20620;-79
2021/08/28 11:50:31;;;;;;;7.62;2.75;;;;;;;;;;4360314;32;20158;-80
2021/08/28 11:52:56;;;;;;;5.20;2.78;;;;;;;;;;4372486;32;20217;-78
2021/08/28 11:55:25;;;;;;;4.12;2.37;;;;;;;;;;4351162;32;20155;-78
2021/08/28 11:58:04;;;;;;;3.92;2.10;;;;;;;;;;4372450;32;20581;-79
2021/08/28 12:00:30;;;;;;;5.37;2.35;;;;;;;;;;4364535;32;20222;-79
2021/08/28 12:03:09;;;;;;;7.53;2.78;;;;;;;;;;4350845;32;20247;-78
2021/08/28 12:05:37;;;;;;;6.30;2.28;;;;;;;;;;4361044;32;20569;-78
2021/08/28 12:08:04;;;;;;;6.43;2.55;;;;;;;;;;4363104;32;20163;-79
2021/08/28 12:10:30;;;;;;;6.90;2.70;;;;;;;;;;4364372;32;20202;-78
2021/08/28 12:12:59;;;;;;;6.90;2.85;;;;;;;;;;4351118;32;20670;-79
2021/08/28 12:15:40;;;;;;;7.18;2.87;;;;;;;;;;4360063;32;20213;-79
2021/08/28 12:18:06;;;;;;;5.68;2.92;;;;;;;;;;4360092;32;20156;-79
2021/08/28 12:21:14;;;;;;;7.70;2.75;;;;;;;;;;4346909;33;20170;-79
2021/08/28 12:23:24;;;;;;;7.28;2.40;;;;;;;;;;4354371;33;20175;-79
2021/08/28 12:25:52;;;;;;;5.10;2.25;;;;;;;;;;4346632;33;20226;-79
2021/08/28 12:28:21;;;;;;;4.95;2.33;;;;;;;;;;4359619;32;20543;-79
2021/08/28 12:31:10;;;;;;;5.55;2.33;;;;;;;;;;4347297;33;20177;-80
2021/08/28 12:33:37;;;;;;;4.45;2.28;;;;;;;;;;4359684;32;20159;-79
2021/08/28 12:36:44;;;;;;;5.03;2.30;;;;;;;;;;4359865;32;20160;-79
2021/08/28 12:39:09;;;;;;;4.68;2.50;;;;;;;;;;4360934;32;20190;-79
2021/08/28 12:42:03;;;;;;;3.78;2.08;;;;;;;;;;4359771;32;20221;-79
2021/08/28 12:44:31;;;;;;;5.87;2.55;;;;;;;;;;4360304;33;20155;-79
2021/08/28 12:46:57;;;;;;;6.62;2.53;;;;;;;;;;4360722;32;20163;-79
2021/08/28 12:49:23;;;;;;;4.05;2.37;;;;;;;;;;4359295;33;20230;-80
2021/08/28 12:52:07;;;;;;;4.35;2.30;;;;;;;;;;4359642;33;20185;-79
2021/08/28 12:54:35;;;;;;;3.35;2.20;;;;;;;;;;4372125;32;20156;-80
2021/08/28 12:57:24;;;;;;;4.62;2.47;;;;;;;;;;4359026;32;20254;-79
2021/08/28 12:59:51;;;;;;;10.32;2.45;;;;;;;;;;4372232;32;20187;-79
2021/08/28 13:02:36;;;;;;;4.95;2.60;;;;;;;;;;4359244;32;20611;-80
2021/08/28 13:05:09;;;;;;;6.80;2.70;;;;;;;;;;4354874;32;20212;-79
2021/08/28 13:07:35;;;;;;;6.30;3.08;;;;;;;;;;4360819;32;20123;-79
2021/08/28 13:10:17;;;;;;;8.77;2.08;;;;;;;;;;4358431;33;20198;-80
2021/08/28 13:13:05;;;;;;;5.07;3.00;;;;;;;;;;4356504;32;20580;-80
2021/08/28 13:15:45;;;;;;;6.10;2.92;;;;;;;;;;4357216;32;20148;-80
2021/08/28 13:18:39;;;;;;;4.10;2.60;;;;;;;;;;4357109;32;20201;-79
2021/08/28 13:21:23;;;;;;;;;;;;;;;;;;;;;
2021/08/28 13:23:54;;;;;;;4.53;2.55;;;;;;;;;;4345551;33;20155;-80
2021/08/28 13:26:31;;;;;;;4.25;2.53;;;;;;;;;;4345559;33;20167;-79
2021/08/28 13:28:59;;;;;;;4.80;2.90;;;;;;;;;;4356960;32;20566;-79
2021/08/28 13:31:24;;;;;;;5.68;2.75;;;;;;;;;;4356475;33;20198;-79
2021/08/28 13:34:08;;;;;;;4.82;3.00;;;;;;;;;;4356244;33;20222;-79
2021/08/28 13:36:40;;;;;;;5.72;2.97;;;;;;;;;;4356630;32;20159;-79
2021/08/28 13:39:12;;;;;;;5.55;2.62;;;;;;;;;;4356969;32;20152;-80
2021/08/28 13:41:37;;;;;;;5.53;2.80;;;;;;;;;;4356491;32;20160;-76
2021/08/28 13:44:03;;;;;;;5.45;2.70;;;;;;;;;;4356194;32;20178;-80
2021/08/28 13:46:31;;;;;;;7.03;2.90;;;;;;;;;;4356574;32;20186;-80
2021/08/28 13:48:56;;;;;;;4.18;2.72;;;;;;;;;;4356691;33;20156;-78
2021/08/28 13:51:31;;;;;;;5.15;2.70;;;;;;;;;;4356466;33;20159;-79
2021/08/28 13:54:06;;;;;;;4.85;2.50;;;;;;;;;;4357856;32;20181;-79
2021/08/28 13:56:32;;;;;;;6.85;2.92;;;;;;;;;;4359465;33;20155;-79
2021/08/28 13:59:10;;;;;;;4.87;2.62;;;;;;;;;;4359500;32;20163;-79
2021/08/28 14:01:43;;;;;;;5.20;2.53;;;;;;;;;;4359459;32;20163;-80
2021/08/28 14:04:08;;;;;;;5.22;2.55;;;;;;;;;;4359412;32;20170;-79
2021/08/28 14:06:35;;;;;;;4.03;2.87;;;;;;;;;;4359105;32;20159;-80
2021/08/28 14:09:11;;;;;;;4.35;2.60;;;;;;;;;;4359045;32;20182;-79
2021/08/28 14:11:37;;;;;;;5.75;3.10;;;;;;;;;;4359125;32;20454;-80
2021/08/28 14:14:02;;;;;;;4.65;2.55;;;;;;;;;;4346870;33;20190;-79
2021/08/28 14:16:30;;;;;;;4.80;2.55;;;;;;;;;;4359453;32;20205;-79
2021/08/28 14:18:55;;;;;;;4.12;2.80;;;;;;;;;;4358914;33;20221;-80
2021/08/28 14:21:21;;;;;;;4.47;2.80;;;;;;;;;;4359320;32;20186;-79
2021/08/28 14:23:49;;;;;;;6.18;2.50;;;;;;;;;;4358967;32;20171;-79
2021/08/28 14:26:15;;;;;;;5.82;2.95;;;;;;;;;;4358302;33;20159;-79
2021/08/28 14:28:43;;;;;;;5.65;2.83;;;;;;;;;;4358645;33;20190;-80
2021/08/28 14:31:18;;;;;;;5.62;2.80;;;;;;;;;;4358846;32;20163;-79
2021/08/28 14:33:45;;;;;;;6.65;2.70;;;;;;;;;;4359079;33;20162;-79
2021/08/28 14:36:11;;;;;;;5.32;2.75;;;;;;;;;;4358373;32;20175;-79
2021/08/28 14:38:45;;;;;;;7.78;2.87;;;;;;;;;;4358270;32;20521;-79
2021/08/28 14:41:13;;;;;;;4.50;2.70;;;;;;;;;;4348201;33;20173;-79
2021/08/28 14:43:50;;;;;;;5.10;2.50;;;;;;;;;;4359856;32;20230;-80
2021/08/28 14:46:19;;;;;;;6.87;2.55;;;;;;;;;;4363364;32;20642;-79
2021/08/28 14:48:53;;;;;;;7.35;2.78;;;;;;;;;;4357400;32;20218;-79
2021/08/28 14:51:30;;;;;;;5.68;3.40;;;;;;;;;;4355780;32;20584;-79
2021/08/28 14:54:04;;;;;;;5.97;2.75;;;;;;;;;;4358524;32;20666;-79
2021/08/28 14:56:32;;;;;;;6.20;2.67;;;;;;;;;;4366558;32;20228;-79
2021/08/28 14:59:09;;;;;;;5.78;2.35;;;;;;;;;;4348406;33;20175;-81
2021/08/28 15:01:35;;;;;;;4.78;2.37;;;;;;;;;;4360412;32;20238;-80
2021/08/28 15:04:03;;;;;;;6.03;2.40;;;;;;;;;;4348884;33;20166;-80
2021/08/28 15:06:28;;;;;;;5.80;2.50;;;;;;;;;;4360380;32;20163;-79
2021/08/28 15:08:56;;;;;;;5.85;2.40;;;;;;;;;;4361021;32;20628;-80
2021/08/28 15:11:49;;;;;;;6.55;2.50;;;;;;;;;;4361351;32;20159;-79
2021/08/28 15:14:15;;;;;;;4.57;2.33;;;;;;;;;;4361575;32;20159;-80
2021/08/28 15:16:51;;;;;;;;;;;;;;;;;;;;;
2021/08/28 15:19:20;;;;;;;4.20;2.50;;;;;;;;;;4346199;33;20189;-79
2021/08/28 15:21:45;;;;;;;5.53;2.60;;;;;;;;;;4361238;32;20169;-80
2021/08/28 15:24:20;;;;;;;4.68;2.47;;;;;;;;;;4360299;32;20151;-79
2021/08/28 15:26:53;;;;;;;4.65;2.50;;;;;;;;;;4360788;33;20165;-79
2021/08/28 15:29:21;;;;;;;6.03;2.50;;;;;;;;;;4348421;33;20230;-79
2021/08/28 15:31:50;;;;;;;4.68;2.37;;;;;;;;;;4352238;32;20156;-79
2021/08/28 15:34:18;;;;;;;4.40;2.65;;;;;;;;;;4333763;33;20177;-79
2021/08/28 15:36:43;;;;;;;5.95;2.72;;;;;;;;;;4333631;33;20186;-80
2021/08/28 15:39:12;;;;;;;5.78;2.75;;;;;;;;;;4333456;33;20786;-80
2021/08/28 15:41:38;;;;;;;4.53;2.72;;;;;;;;;;4347867;33;20136;-79
2021/08/28 15:44:14;;;;;;;4.75;2.95;;;;;;;;;;4333740;33;20595;-79
2021/08/28 15:46:58;;;;;;;5.20;2.67;;;;;;;;;;4333744;33;20147;-79
2021/08/28 15:49:26;;;;;;;3.45;2.42;;;;;;;;;;4334226;33;20155;-79
2021/08/28 15:51:58;;;;;;;5.55;3.08;;;;;;;;;;4333051;33;20178;-78
2021/08/28 15:54:39;;;;;;;6.05;2.75;;;;;;;;;;4333496;33;20238;-77
2021/08/28 15:58:10;;;;;;;4.60;2.35;;;;;;;;;;4351040;32;20233;-79
2021/08/28 16:00:47;;;;;;;4.47;2.28;;;;;;;;;;4329496;33;20525;-79
2021/08/28 16:03:44;;;;;;;;;;;;;;;;;;;;;
2021/08/28 16:06:16;;;;;;;3.90;1.95;;;;;;;;;;4355589;32;20185;-79
2021/08/28 16:08:41;;;;;;;3.67;2.00;;;;;;;;;;4360779;32;20148;-79
2021/08/28 16:14:15;;;;;;;6.30;2.20;;;;;;;;;;4271680;33;20240;-79
2021/08/28 16:16:40;;;;;;;5.47;1.87;;;;;;;;;;4317561;32;20283;-79
2021/08/28 16:22:11;;;;;;;5.72;1.90;;;;;;;;;;4357701;33;20697;-79
2021/08/28 16:24:37;;;;;;;6.22;1.92;;;;;;;;;;4360322;32;20193;-79
2021/08/28 16:27:02;;;;;;;5.80;2.17;;;;;;;;;;4360970;33;20456;-79
2021/08/28 16:29:30;;;;;;;6.07;2.37;;;;;;;;;;4360167;33;20459;-79
2021/08/28 16:32:03;;;;;;;6.90;2.30;;;;;;;;;;4359699;33;20163;-79
2021/08/28 16:34:31;;;;;;;5.53;2.30;;;;;;;;;;4351095;32;20185;-80
2021/08/28 16:37:00;;;;;;;6.05;2.37;;;;;;;;;;4359540;32;20159;-79
2021/08/28 16:42:33;;;;;;;4.87;2.58;;;;;;;;;;4314679;33;20165;-80
2021/08/28 16:45:06;;;;;;;5.87;2.58;;;;;;;;;;4317141;33;20167;-79
2021/08/28 16:47:51;;;;;;;4.15;1.80;;;;;;;;;;4314617;33;20760;-80
2021/08/28 16:50:41;;;;;;;4.57;2.00;;;;;;;;;;4314294;33;20239;-79
2021/08/28 16:53:28;;;;;;;7.43;1.80;;;;;;;;;;4328813;32;20163;-79
2021/08/28 16:56:04;;;;;;;4.70;1.98;;;;;;;;;;4344638;33;20230;-78
2021/08/28 16:58:54;;;;;;;;;;;;;;;;;;;;;
2021/08/28 17:01:20;;;;;;;3.17;2.00;;;;;;;;;;4346416;33;20197;-79
2021/08/28 17:03:48;;;;;;;4.43;2.10;;;;;;;;;;4344987;33;20148;-79
2021/08/28 17:06:30;;;;;;;3.58;1.98;;;;;;;;;;4344720;33;20156;-79
2021/08/28 17:09:06;;;;;;;4.05;2.00;;;;;;;;;;4343748;33;20271;-78
2021/08/28 17:11:35;;;;;;;3.33;2.20;;;;;;;;;;4348296;32;20190;-78
2021/08/28 17:14:08;;;;;;;3.87;1.92;;;;;;;;;;4357555;32;20689;-80
2021/08/28 17:16:36;;;;;;;7.45;2.40;;;;;;;;;;4368346;32;20159;-78
2021/08/28 17:19:02;;;;;;;4.62;2.33;;;;;;;;;;4371782;32;20212;-79
2021/08/28 17:21:35;;;;;;;5.40;2.17;;;;;;;;;;4359399;32;20167;-79
2021/08/28 17:24:03;;;;;;;3.97;2.00;;;;;;;;;;4372475;32;20198;-79
2021/08/28 17:26:29;;;;;;;5.32;2.00;;;;;;;;;;4359084;32;20181;-79
2021/08/28 17:28:54;;;;;;;6.75;2.15;;;;;;;;;;4359440;32;20177;-79
2021/08/28 17:31:32;;;;;;;4.55;2.53;;;;;;;;;;4358772;33;20202;-80
2021/08/28 17:34:20;;;;;;;4.05;2.30;;;;;;;;;;4346562;33;20175;-80
2021/08/28 17:36:55;;;;;;;6.03;2.90;;;;;;;;;;4357742;32;20170;-79
2021/08/28 17:39:34;;;;;;;6.60;2.55;;;;;;;;;;4354821;33;20158;-79
2021/08/28 17:42:41;;;;;;;5.62;2.12;;;;;;;;;;4346939;32;20176;-79
2021/08/28 17:45:24;;;;;;;4.37;2.05;;;;;;;;;;4357625;32;20581;-78
2021/08/28 17:47:58;;;;;;;4.00;2.05;;;;;;;;;;4358872;32;20204;-79
2021/08/28 17:50:26;;;;;;;5.40;2.20;;;;;;;;;;4346338;33;20154;-79
2021/08/28 17:52:54;;;;;;;3.10;1.77;;;;;;;;;;4358859;32;20179;-78
2021/08/28 17:55:22;;;;;;;6.35;2.12;;;;;;;;;;4358682;33;20611;-80
2021/08/28 17:57:48;;;;;;;5.47;2.30;;;;;;;;;;4359199;32;20565;-80
2021/08/28 18:00:14;;;;;;;6.15;2.45;;;;;;;;;;4358973;33;20249;-78
2021/08/28 18:02:48;;;;;;;4.87;2.50;;;;;;;;;;4360370;33;20193;-81
2021/08/28 18:05:14;;;;;;;4.93;2.30;;;;;;;;;;4359581;32;20506;-79
2021/08/28 18:07:39;;;;;;;8.40;2.40;;;;;;;;;;4358668;33;20651;-79
2021/08/28 18:10:06;;;;;;;5.25;2.20;;;;;;;;;;4358621;32;20163;-79
2021/08/28 18:15:21;;;;;;;4.20;2.10;;;;;;;;;;4360121;33;20150;-80
2021/08/28 18:17:47;;;;;;;3.78;2.30;;;;;;;;;;4359791;33;20135;-79
2021/08/28 18:20:13;;;;;;;4.40;2.20;;;;;;;;;;4359242;32;20204;-79
2021/08/28 18:22:41;;;;;;;6.07;2.22;;;;;;;;;;4363719;32;20635;-79
2021/08/28 18:25:19;;;;;;;4.70;2.33;;;;;;;;;;4347141;33;20163;-79
2021/08/28 18:27:49;;;;;;;5.82;2.55;;;;;;;;;;4355982;32;20174;-79
2021/08/28 18:30:21;;;;;;;4.80;2.45;;;;;;;;;;4346280;33;20498;-78
2021/08/28 18:39:17;;;;;;;5.03;2.10;;;;;;;;;;4351571;33;20156;-82
2021/08/28 18:41:42;;;;;;;4.72;2.37;;;;;;;;;;4361201;32;20178;-82
2021/08/28 18:44:20;;;;;;;5.75;2.15;;;;;;;;;;4361491;33;20156;-80
2021/08/28 18:46:46;;;;;;;6.40;2.65;;;;;;;;;;4361464;32;20195;-80
2021/08/28 18:49:11;;;;;;;5.68;2.42;;;;;;;;;;4362584;33;20494;-80
2021/08/28 18:51:36;;;;;;;6.25;2.95;;;;;;;;;;4361572;32;20163;-80
2021/08/28 18:54:12;;;;;;;6.35;2.60;;;;;;;;;;4361791;32;20523;-80
2021/08/28 18:56:37;;;;;;;6.62;2.85;;;;;;;;;;4361064;33;20186;-80
2021/08/28 18:59:05;;;;;;;6.80;3.15;;;;;;;;;;4361056;33;20601;-80
2021/08/28 19:01:31;;;;;;;9.48;2.42;;;;;;;;;;4360982;32;20187;-80